sensor_id;sensor_type;location;lat;lon;timestamp;P1;durP1;ratioP1;P2;durP2;ratioP2
40611;SDS011;26317;44.894;20.286;2022-12-31T00:02:21;51.53;;;37.88;;
40611;SDS011;26317;44.894;20.286;2022-12-31T00:04:56;48.50;;;36.88;;
40611;SDS011;26317;44.894;20.286;2022-12-31T00:07:30;54.53;;;40.45;;
40611;SDS011;26317;44.894;20.286;2022-12-31T00:10:04;50.40;;;38.58;;
40611;SDS011;26317;44.894;20.286;2022-12-31T00:12:57;53.75;;;40.20;;
40611;SDS011;26317;44.894;20.286;2022-12-31T00:15:43;50.33;;;39.00;;
40611;SDS011;26317;44.894;20.286;2022-12-31T00:18:20;53.70;;;39.72;;
40611;SDS011;26317;44.894;20.286;2022-12-31T00:20:57;56.47;;;39.70;;
40611;SDS011;26317;44.894;20.286;2022-12-31T00:23:31;54.88;;;42.55;;
40611;SDS011;26317;44.894;20.286;2022-12-31T00:26:03;51.72;;;41.28;;
40611;SDS011;26317;44.894;20.286;2022-12-31T00:28:35;51.50;;;41.72;;
40611;SDS011;26317;44.894;20.286;2022-12-31T00:31:14;58.78;;;41.92;;
40611;SDS011;26317;44.894;20.286;2022-12-31T00:33:51;49.17;;;39.25;;
40611;SDS011;26317;44.894;20.286;2022-12-31T00:36:26;54.75;;;40.78;;
40611;SDS011;26317;44.894;20.286;2022-12-31T00:39:08;56.25;;;41.72;;
40611;SDS011;26317;44.894;20.286;2022-12-31T00:41:51;58.22;;;42.00;;
40611;SDS011;26317;44.894;20.286;2022-12-31T00:44:26;51.67;;;40.65;;
40611;SDS011;26317;44.894;20.286;2022-12-31T00:47:06;54.22;;;41.90;;
40611;SDS011;26317;44.894;20.286;2022-12-31T00:49:40;50.63;;;40.25;;
40611;SDS011;26317;44.894;20.286;2022-12-31T00:52:14;48.78;;;39.22;;
40611;SDS011;26317;44.894;20.286;2022-12-31T00:54:46;56.92;;;41.53;;
40611;SDS011;26317;44.894;20.286;2022-12-31T00:57:25;48.25;;;39.42;;
40611;SDS011;26317;44.894;20.286;2022-12-31T00:59:58;50.22;;;39.58;;
40611;SDS011;26317;44.894;20.286;2022-12-31T01:02:48;49.45;;;39.53;;
40611;SDS011;26317;44.894;20.286;2022-12-31T01:05:31;47.70;;;37.03;;
40611;SDS011;26317;44.894;20.286;2022-12-31T01:08:10;46.53;;;35.60;;
40611;SDS011;26317;44.894;20.286;2022-12-31T01:10:51;47.20;;;35.60;;
40611;SDS011;26317;44.894;20.286;2022-12-31T01:13:37;54.80;;;36.67;;
40611;SDS011;26317;44.894;20.286;2022-12-31T01:16:08;41.38;;;32.95;;
40611;SDS011;26317;44.894;20.286;2022-12-31T01:18:45;47.25;;;33.35;;
40611;SDS011;26317;44.894;20.286;2022-12-31T01:21:17;40.13;;;32.50;;
40611;SDS011;26317;44.894;20.286;2022-12-31T01:23:48;46.28;;;34.95;;
40611;SDS011;26317;44.894;20.286;2022-12-31T01:28:56;42.80;;;33.00;;
40611;SDS011;26317;44.894;20.286;2022-12-31T01:31:28;45.03;;;34.17;;
40611;SDS011;26317;44.894;20.286;2022-12-31T01:34:09;50.22;;;34.88;;
40611;SDS011;26317;44.894;20.286;2022-12-31T01:36:40;45.00;;;34.95;;
40611;SDS011;26317;44.894;20.286;2022-12-31T01:39:17;45.92;;;34.45;;
40611;SDS011;26317;44.894;20.286;2022-12-31T01:41:50;43.38;;;33.95;;
40611;SDS011;26317;44.894;20.286;2022-12-31T01:47:14;45.72;;;33.67;;
40611;SDS011;26317;44.894;20.286;2022-12-31T01:52:43;46.58;;;34.05;;
40611;SDS011;26317;44.894;20.286;2022-12-31T01:55:20;40.95;;;33.78;;
40611;SDS011;26317;44.894;20.286;2022-12-31T01:58:00;48.35;;;34.65;;
40611;SDS011;26317;44.894;20.286;2022-12-31T02:00:44;43.97;;;35.00;;
40611;SDS011;26317;44.894;20.286;2022-12-31T02:03:17;45.67;;;34.58;;
40611;SDS011;26317;44.894;20.286;2022-12-31T02:05:55;45.35;;;34.42;;
40611;SDS011;26317;44.894;20.286;2022-12-31T02:08:34;48.95;;;34.80;;
40611;SDS011;26317;44.894;20.286;2022-12-31T02:11:28;44.47;;;34.72;;
40611;SDS011;26317;44.894;20.286;2022-12-31T02:14:05;48.80;;;36.53;;
40611;SDS011;26317;44.894;20.286;2022-12-31T02:16:51;49.17;;;35.97;;
40611;SDS011;26317;44.894;20.286;2022-12-31T02:19:37;45.05;;;35.90;;
40611;SDS011;26317;44.894;20.286;2022-12-31T02:22:59;42.95;;;33.53;;
40611;SDS011;26317;44.894;20.286;2022-12-31T02:29:29;42.67;;;34.67;;
40611;SDS011;26317;44.894;20.286;2022-12-31T02:35:32;41.85;;;35.08;;
40611;SDS011;26317;44.894;20.286;2022-12-31T02:38:18;40.88;;;34.33;;
40611;SDS011;26317;44.894;20.286;2022-12-31T02:40:51;44.90;;;34.25;;
40611;SDS011;26317;44.894;20.286;2022-12-31T02:43:28;45.30;;;35.88;;
40611;SDS011;26317;44.894;20.286;2022-12-31T02:46:16;46.28;;;33.67;;
40611;SDS011;26317;44.894;20.286;2022-12-31T02:49:02;42.08;;;33.85;;
40611;SDS011;26317;44.894;20.286;2022-12-31T02:51:40;50.40;;;36.70;;
40611;SDS011;26317;44.894;20.286;2022-12-31T02:54:19;46.65;;;37.25;;
40611;SDS011;26317;44.894;20.286;2022-12-31T02:57:03;43.03;;;33.70;;
40611;SDS011;26317;44.894;20.286;2022-12-31T02:59:41;46.30;;;33.65;;
40611;SDS011;26317;44.894;20.286;2022-12-31T03:02:33;44.40;;;33.83;;
40611;SDS011;26317;44.894;20.286;2022-12-31T03:05:14;42.28;;;33.45;;
40611;SDS011;26317;44.894;20.286;2022-12-31T03:07:53;43.95;;;34.92;;
40611;SDS011;26317;44.894;20.286;2022-12-31T03:10:27;54.55;;;44.17;;
40611;SDS011;26317;44.894;20.286;2022-12-31T03:13:10;70.90;;;52.15;;
40611;SDS011;26317;44.894;20.286;2022-12-31T03:15:48;54.95;;;42.50;;
40611;SDS011;26317;44.894;20.286;2022-12-31T03:18:18;56.00;;;38.08;;
40611;SDS011;26317;44.894;20.286;2022-12-31T03:21:34;47.83;;;34.38;;
40611;SDS011;26317;44.894;20.286;2022-12-31T03:24:25;45.65;;;35.70;;
40611;SDS011;26317;44.894;20.286;2022-12-31T03:27:08;46.22;;;36.30;;
40611;SDS011;26317;44.894;20.286;2022-12-31T03:29:50;48.92;;;36.53;;
40611;SDS011;26317;44.894;20.286;2022-12-31T03:32:22;42.13;;;34.17;;
40611;SDS011;26317;44.894;20.286;2022-12-31T03:34:58;42.22;;;33.05;;
40611;SDS011;26317;44.894;20.286;2022-12-31T03:40:20;44.85;;;33.50;;
40611;SDS011;26317;44.894;20.286;2022-12-31T03:43:01;47.30;;;34.75;;
40611;SDS011;26317;44.894;20.286;2022-12-31T03:45:31;41.78;;;34.13;;
40611;SDS011;26317;44.894;20.286;2022-12-31T03:48:06;42.20;;;34.85;;
40611;SDS011;26317;44.894;20.286;2022-12-31T03:50:44;45.05;;;34.20;;
40611;SDS011;26317;44.894;20.286;2022-12-31T03:53:33;43.40;;;34.05;;
40611;SDS011;26317;44.894;20.286;2022-12-31T03:56:07;42.95;;;33.25;;
40611;SDS011;26317;44.894;20.286;2022-12-31T03:58:37;41.60;;;32.80;;
40611;SDS011;26317;44.894;20.286;2022-12-31T04:01:19;45.42;;;34.85;;
40611;SDS011;26317;44.894;20.286;2022-12-31T04:03:55;41.53;;;31.77;;
40611;SDS011;26317;44.894;20.286;2022-12-31T04:06:25;43.67;;;33.08;;
40611;SDS011;26317;44.894;20.286;2022-12-31T04:09:10;41.63;;;34.50;;
40611;SDS011;26317;44.894;20.286;2022-12-31T04:11:43;52.53;;;37.67;;
40611;SDS011;26317;44.894;20.286;2022-12-31T04:17:04;51.47;;;36.03;;
40611;SDS011;26317;44.894;20.286;2022-12-31T04:19:36;47.60;;;34.50;;
40611;SDS011;26317;44.894;20.286;2022-12-31T04:22:06;48.25;;;36.05;;
40611;SDS011;26317;44.894;20.286;2022-12-31T04:24:52;45.45;;;35.85;;
40611;SDS011;26317;44.894;20.286;2022-12-31T04:27:26;47.95;;;36.55;;
40611;SDS011;26317;44.894;20.286;2022-12-31T04:30:04;45.00;;;35.25;;
40611;SDS011;26317;44.894;20.286;2022-12-31T04:32:37;37.13;;;32.13;;
40611;SDS011;26317;44.894;20.286;2022-12-31T04:35:12;44.80;;;35.83;;
40611;SDS011;26317;44.894;20.286;2022-12-31T04:37:47;43.92;;;35.50;;
40611;SDS011;26317;44.894;20.286;2022-12-31T04:40:40;44.47;;;35.45;;
40611;SDS011;26317;44.894;20.286;2022-12-31T04:43:25;45.88;;;35.10;;
40611;SDS011;26317;44.894;20.286;2022-12-31T04:45:59;45.03;;;35.60;;
40611;SDS011;26317;44.894;20.286;2022-12-31T04:48:30;46.78;;;37.55;;
40611;SDS011;26317;44.894;20.286;2022-12-31T04:51:07;64.15;;;42.20;;
40611;SDS011;26317;44.894;20.286;2022-12-31T04:53:47;52.47;;;39.25;;
40611;SDS011;26317;44.894;20.286;2022-12-31T04:56:31;53.03;;;38.40;;
40611;SDS011;26317;44.894;20.286;2022-12-31T04:59:03;52.38;;;39.15;;
40611;SDS011;26317;44.894;20.286;2022-12-31T05:01:36;52.10;;;40.90;;
40611;SDS011;26317;44.894;20.286;2022-12-31T05:04:09;49.85;;;38.58;;
40611;SDS011;26317;44.894;20.286;2022-12-31T05:06:39;51.97;;;37.58;;
40611;SDS011;26317;44.894;20.286;2022-12-31T05:09:14;55.38;;;38.65;;
40611;SDS011;26317;44.894;20.286;2022-12-31T05:11:52;50.58;;;36.45;;
40611;SDS011;26317;44.894;20.286;2022-12-31T05:14:26;53.15;;;38.72;;
40611;SDS011;26317;44.894;20.286;2022-12-31T05:16:59;51.50;;;37.90;;
40611;SDS011;26317;44.894;20.286;2022-12-31T05:19:32;56.65;;;39.08;;
40611;SDS011;26317;44.894;20.286;2022-12-31T05:22:06;50.53;;;38.03;;
40611;SDS011;26317;44.894;20.286;2022-12-31T05:24:49;50.58;;;38.20;;
40611;SDS011;26317;44.894;20.286;2022-12-31T05:27:39;55.15;;;39.45;;
40611;SDS011;26317;44.894;20.286;2022-12-31T05:30:21;49.60;;;37.95;;
40611;SDS011;26317;44.894;20.286;2022-12-31T05:32:52;49.83;;;38.55;;
40611;SDS011;26317;44.894;20.286;2022-12-31T05:35:27;50.63;;;41.08;;
40611;SDS011;26317;44.894;20.286;2022-12-31T05:38:04;50.30;;;38.40;;
40611;SDS011;26317;44.894;20.286;2022-12-31T05:40:44;56.67;;;39.15;;
40611;SDS011;26317;44.894;20.286;2022-12-31T05:43:27;47.80;;;38.38;;
40611;SDS011;26317;44.894;20.286;2022-12-31T05:45:56;46.83;;;37.92;;
40611;SDS011;26317;44.894;20.286;2022-12-31T05:48:31;54.42;;;38.08;;
40611;SDS011;26317;44.894;20.286;2022-12-31T05:51:06;49.00;;;37.30;;
40611;SDS011;26317;44.894;20.286;2022-12-31T05:53:40;50.22;;;38.25;;
40611;SDS011;26317;44.894;20.286;2022-12-31T05:56:14;42.42;;;36.78;;
40611;SDS011;26317;44.894;20.286;2022-12-31T05:58:50;52.15;;;37.95;;
40611;SDS011;26317;44.894;20.286;2022-12-31T06:01:23;43.70;;;36.63;;
40611;SDS011;26317;44.894;20.286;2022-12-31T06:06:28;46.85;;;35.70;;
40611;SDS011;26317;44.894;20.286;2022-12-31T06:09:07;47.63;;;36.88;;
40611;SDS011;26317;44.894;20.286;2022-12-31T06:11:36;47.63;;;36.38;;
40611;SDS011;26317;44.894;20.286;2022-12-31T06:14:26;48.60;;;35.80;;
40611;SDS011;26317;44.894;20.286;2022-12-31T06:17:01;53.03;;;38.03;;
40611;SDS011;26317;44.894;20.286;2022-12-31T06:19:43;48.45;;;36.10;;
40611;SDS011;26317;44.894;20.286;2022-12-31T06:22:15;50.72;;;36.75;;
40611;SDS011;26317;44.894;20.286;2022-12-31T06:24:51;47.15;;;36.20;;
40611;SDS011;26317;44.894;20.286;2022-12-31T06:27:28;50.22;;;34.85;;
40611;SDS011;26317;44.894;20.286;2022-12-31T06:30:08;49.08;;;34.97;;
40611;SDS011;26317;44.894;20.286;2022-12-31T06:32:44;50.15;;;36.92;;
40611;SDS011;26317;44.894;20.286;2022-12-31T06:35:25;61.97;;;40.80;;
40611;SDS011;26317;44.894;20.286;2022-12-31T06:37:57;52.20;;;38.53;;
40611;SDS011;26317;44.894;20.286;2022-12-31T06:40:30;47.05;;;37.65;;
40611;SDS011;26317;44.894;20.286;2022-12-31T06:43:03;55.13;;;39.60;;
40611;SDS011;26317;44.894;20.286;2022-12-31T06:48:15;58.13;;;44.58;;
40611;SDS011;26317;44.894;20.286;2022-12-31T06:50:49;65.22;;;46.90;;
40611;SDS011;26317;44.894;20.286;2022-12-31T06:53:27;63.40;;;47.47;;
40611;SDS011;26317;44.894;20.286;2022-12-31T06:56:07;60.28;;;46.83;;
40611;SDS011;26317;44.894;20.286;2022-12-31T06:58:52;53.80;;;41.05;;
40611;SDS011;26317;44.894;20.286;2022-12-31T07:01:39;53.33;;;38.58;;
40611;SDS011;26317;44.894;20.286;2022-12-31T07:04:34;43.38;;;32.85;;
40611;SDS011;26317;44.894;20.286;2022-12-31T07:07:23;38.00;;;30.63;;
40611;SDS011;26317;44.894;20.286;2022-12-31T07:10:00;40.92;;;30.20;;
40611;SDS011;26317;44.894;20.286;2022-12-31T07:15:56;33.13;;;27.55;;
40611;SDS011;26317;44.894;20.286;2022-12-31T07:18:40;37.42;;;27.20;;
40611;SDS011;26317;44.894;20.286;2022-12-31T07:21:16;33.73;;;27.93;;
40611;SDS011;26317;44.894;20.286;2022-12-31T07:23:56;35.35;;;27.30;;
40611;SDS011;26317;44.894;20.286;2022-12-31T07:26:34;35.00;;;28.52;;
40611;SDS011;26317;44.894;20.286;2022-12-31T07:29:23;40.47;;;26.95;;
40611;SDS011;26317;44.894;20.286;2022-12-31T07:32:03;38.83;;;26.70;;
40611;SDS011;26317;44.894;20.286;2022-12-31T07:34:51;48.00;;;26.60;;
40611;SDS011;26317;44.894;20.286;2022-12-31T07:40:34;34.25;;;28.48;;
40611;SDS011;26317;44.894;20.286;2022-12-31T07:43:21;39.20;;;28.73;;
40611;SDS011;26317;44.894;20.286;2022-12-31T07:46:01;43.78;;;29.25;;
40611;SDS011;26317;44.894;20.286;2022-12-31T07:48:41;33.77;;;25.50;;
40611;SDS011;26317;44.894;20.286;2022-12-31T07:51:24;41.75;;;28.92;;
40611;SDS011;26317;44.894;20.286;2022-12-31T07:54:00;50.30;;;33.15;;
40611;SDS011;26317;44.894;20.286;2022-12-31T07:56:35;41.75;;;30.20;;
40611;SDS011;26317;44.894;20.286;2022-12-31T07:59:16;75.50;;;58.45;;
40611;SDS011;26317;44.894;20.286;2022-12-31T08:02:11;71.38;;;55.63;;
40611;SDS011;26317;44.894;20.286;2022-12-31T08:05:04;59.53;;;48.35;;
40611;SDS011;26317;44.894;20.286;2022-12-31T08:07:57;56.67;;;43.55;;
40611;SDS011;26317;44.894;20.286;2022-12-31T08:10:44;38.35;;;30.80;;
40611;SDS011;26317;44.894;20.286;2022-12-31T08:13:28;46.28;;;38.47;;
40611;SDS011;26317;44.894;20.286;2022-12-31T08:16:06;40.25;;;32.85;;
40611;SDS011;26317;44.894;20.286;2022-12-31T08:18:47;36.75;;;29.35;;
40611;SDS011;26317;44.894;20.286;2022-12-31T08:21:34;41.45;;;32.63;;
40611;SDS011;26317;44.894;20.286;2022-12-31T08:24:18;45.25;;;33.88;;
40611;SDS011;26317;44.894;20.286;2022-12-31T08:26:58;38.80;;;31.10;;
40611;SDS011;26317;44.894;20.286;2022-12-31T08:29:45;41.92;;;30.65;;
40611;SDS011;26317;44.894;20.286;2022-12-31T08:35:03;47.65;;;33.35;;
40611;SDS011;26317;44.894;20.286;2022-12-31T08:37:48;45.00;;;30.33;;
40611;SDS011;26317;44.894;20.286;2022-12-31T08:40:33;48.05;;;30.73;;
40611;SDS011;26317;44.894;20.286;2022-12-31T08:43:29;48.50;;;35.67;;
40611;SDS011;26317;44.894;20.286;2022-12-31T08:46:10;51.30;;;38.15;;
40611;SDS011;26317;44.894;20.286;2022-12-31T08:48:46;51.80;;;36.30;;
40611;SDS011;26317;44.894;20.286;2022-12-31T08:51:19;53.33;;;43.90;;
40611;SDS011;26317;44.894;20.286;2022-12-31T08:53:56;62.38;;;48.70;;
40611;SDS011;26317;44.894;20.286;2022-12-31T08:56:37;46.70;;;36.35;;
40611;SDS011;26317;44.894;20.286;2022-12-31T08:59:30;48.10;;;36.42;;
40611;SDS011;26317;44.894;20.286;2022-12-31T09:02:30;52.83;;;41.00;;
40611;SDS011;26317;44.894;20.286;2022-12-31T09:05:28;89.88;;;70.47;;
40611;SDS011;26317;44.894;20.286;2022-12-31T09:08:07;79.53;;;66.57;;
40611;SDS011;26317;44.894;20.286;2022-12-31T09:10:52;48.85;;;39.22;;
40611;SDS011;26317;44.894;20.286;2022-12-31T09:13:38;63.88;;;52.40;;
40611;SDS011;26317;44.894;20.286;2022-12-31T09:16:28;45.15;;;35.22;;
40611;SDS011;26317;44.894;20.286;2022-12-31T09:19:09;42.55;;;34.00;;
40611;SDS011;26317;44.894;20.286;2022-12-31T09:21:45;48.15;;;33.72;;
40611;SDS011;26317;44.894;20.286;2022-12-31T09:24:18;40.95;;;34.35;;
40611;SDS011;26317;44.894;20.286;2022-12-31T09:26:53;41.85;;;33.80;;
40611;SDS011;26317;44.894;20.286;2022-12-31T09:29:42;42.70;;;36.10;;
40611;SDS011;26317;44.894;20.286;2022-12-31T09:32:28;50.67;;;36.03;;
40611;SDS011;26317;44.894;20.286;2022-12-31T09:35:12;41.42;;;33.17;;
40611;SDS011;26317;44.894;20.286;2022-12-31T09:43:52;54.88;;;41.25;;
40611;SDS011;26317;44.894;20.286;2022-12-31T09:53:28;49.70;;;39.70;;
40611;SDS011;26317;44.894;20.286;2022-12-31T09:56:34;49.28;;;38.33;;
40611;SDS011;26317;44.894;20.286;2022-12-31T09:59:12;42.55;;;36.05;;
40611;SDS011;26317;44.894;20.286;2022-12-31T10:01:54;46.03;;;35.70;;
40611;SDS011;26317;44.894;20.286;2022-12-31T10:04:40;49.78;;;36.92;;
40611;SDS011;26317;44.894;20.286;2022-12-31T10:07:37;52.90;;;36.53;;
40611;SDS011;26317;44.894;20.286;2022-12-31T10:10:18;48.90;;;38.10;;
40611;SDS011;26317;44.894;20.286;2022-12-31T10:13:20;45.85;;;37.25;;
40611;SDS011;26317;44.894;20.286;2022-12-31T10:16:36;52.50;;;38.05;;
40611;SDS011;26317;44.894;20.286;2022-12-31T10:28:53;44.47;;;34.45;;
40611;SDS011;26317;44.894;20.286;2022-12-31T10:31:33;55.53;;;34.95;;
40611;SDS011;26317;44.894;20.286;2022-12-31T10:37:13;40.53;;;30.15;;
40611;SDS011;26317;44.894;20.286;2022-12-31T10:46:35;41.45;;;29.55;;
40611;SDS011;26317;44.894;20.286;2022-12-31T10:52:53;44.42;;;31.42;;
40611;SDS011;26317;44.894;20.286;2022-12-31T10:59:13;46.22;;;30.90;;
40611;SDS011;26317;44.894;20.286;2022-12-31T11:02:12;40.75;;;27.92;;
40611;SDS011;26317;44.894;20.286;2022-12-31T11:08:38;37.47;;;27.58;;
40611;SDS011;26317;44.894;20.286;2022-12-31T11:11:58;39.40;;;27.25;;
40611;SDS011;26317;44.894;20.286;2022-12-31T11:17:50;37.97;;;27.13;;
40611;SDS011;26317;44.894;20.286;2022-12-31T11:20:52;34.75;;;25.45;;
40611;SDS011;26317;44.894;20.286;2022-12-31T11:23:42;39.63;;;25.27;;
40611;SDS011;26317;44.894;20.286;2022-12-31T11:26:28;32.22;;;23.85;;
40611;SDS011;26317;44.894;20.286;2022-12-31T11:29:15;33.05;;;24.15;;
40611;SDS011;26317;44.894;20.286;2022-12-31T11:32:05;28.52;;;20.48;;
40611;SDS011;26317;44.894;20.286;2022-12-31T11:38:09;25.42;;;15.65;;
40611;SDS011;26317;44.894;20.286;2022-12-31T11:43:31;22.13;;;16.38;;
40611;SDS011;26317;44.894;20.286;2022-12-31T11:46:25;23.38;;;16.42;;
40611;SDS011;26317;44.894;20.286;2022-12-31T11:52:35;26.65;;;17.08;;
40611;SDS011;26317;44.894;20.286;2022-12-31T11:55:29;20.67;;;17.13;;
40611;SDS011;26317;44.894;20.286;2022-12-31T11:58:34;19.63;;;14.63;;
40611;SDS011;26317;44.894;20.286;2022-12-31T12:01:06;20.90;;;15.63;;
40611;SDS011;26317;44.894;20.286;2022-12-31T12:03:40;22.15;;;15.27;;
40611;SDS011;26317;44.894;20.286;2022-12-31T12:06:18;16.90;;;13.43;;
40611;SDS011;26317;44.894;20.286;2022-12-31T12:08:58;17.27;;;12.82;;
40611;SDS011;26317;44.894;20.286;2022-12-31T12:11:39;19.55;;;14.48;;
40611;SDS011;26317;44.894;20.286;2022-12-31T12:14:21;24.17;;;16.20;;
40611;SDS011;26317;44.894;20.286;2022-12-31T12:17:04;19.77;;;14.70;;
40611;SDS011;26317;44.894;20.286;2022-12-31T12:19:41;25.85;;;15.93;;
40611;SDS011;26317;44.894;20.286;2022-12-31T12:22:19;32.28;;;21.52;;
40611;SDS011;26317;44.894;20.286;2022-12-31T12:24:52;32.05;;;21.92;;
40611;SDS011;26317;44.894;20.286;2022-12-31T12:27:38;21.65;;;17.25;;
40611;SDS011;26317;44.894;20.286;2022-12-31T12:30:16;27.67;;;16.90;;
40611;SDS011;26317;44.894;20.286;2022-12-31T12:32:53;24.40;;;17.35;;
40611;SDS011;26317;44.894;20.286;2022-12-31T12:35:36;24.70;;;16.05;;
40611;SDS011;26317;44.894;20.286;2022-12-31T12:38:14;20.95;;;15.52;;
40611;SDS011;26317;44.894;20.286;2022-12-31T12:40:53;22.75;;;14.63;;
40611;SDS011;26317;44.894;20.286;2022-12-31T12:43:28;22.40;;;14.23;;
40611;SDS011;26317;44.894;20.286;2022-12-31T12:46:03;19.15;;;14.38;;
40611;SDS011;26317;44.894;20.286;2022-12-31T12:48:39;20.77;;;15.27;;
40611;SDS011;26317;44.894;20.286;2022-12-31T12:51:19;30.63;;;22.00;;
40611;SDS011;26317;44.894;20.286;2022-12-31T12:54:08;24.88;;;17.75;;
40611;SDS011;26317;44.894;20.286;2022-12-31T12:56:54;22.88;;;16.30;;
40611;SDS011;26317;44.894;20.286;2022-12-31T13:06:26;22.80;;;15.85;;
40611;SDS011;26317;44.894;20.286;2022-12-31T13:09:07;21.23;;;17.30;;
40611;SDS011;26317;44.894;20.286;2022-12-31T13:12:08;27.80;;;18.40;;
40611;SDS011;26317;44.894;20.286;2022-12-31T13:15:07;21.42;;;17.30;;
40611;SDS011;26317;44.894;20.286;2022-12-31T13:17:48;32.97;;;16.75;;
40611;SDS011;26317;44.894;20.286;2022-12-31T13:20:28;20.67;;;14.70;;
40611;SDS011;26317;44.894;20.286;2022-12-31T13:23:21;22.10;;;15.80;;
40611;SDS011;26317;44.894;20.286;2022-12-31T13:28:36;23.23;;;15.98;;
40611;SDS011;26317;44.894;20.286;2022-12-31T13:31:15;18.70;;;13.20;;
40611;SDS011;26317;44.894;20.286;2022-12-31T13:33:51;17.60;;;12.75;;
40611;SDS011;26317;44.894;20.286;2022-12-31T13:36:39;20.83;;;14.27;;
40611;SDS011;26317;44.894;20.286;2022-12-31T13:39:14;25.27;;;17.42;;
40611;SDS011;26317;44.894;20.286;2022-12-31T13:41:54;32.33;;;25.08;;
40611;SDS011;26317;44.894;20.286;2022-12-31T13:44:32;36.10;;;28.13;;
40611;SDS011;26317;44.894;20.286;2022-12-31T13:47:09;30.15;;;20.00;;
40611;SDS011;26317;44.894;20.286;2022-12-31T13:49:49;23.88;;;16.10;;
40611;SDS011;26317;44.894;20.286;2022-12-31T13:52:28;23.13;;;15.95;;
40611;SDS011;26317;44.894;20.286;2022-12-31T13:55:06;24.33;;;16.40;;
40611;SDS011;26317;44.894;20.286;2022-12-31T13:57:47;22.27;;;15.27;;
40611;SDS011;26317;44.894;20.286;2022-12-31T14:00:29;28.52;;;17.08;;
40611;SDS011;26317;44.894;20.286;2022-12-31T14:03:15;26.38;;;14.75;;
40611;SDS011;26317;44.894;20.286;2022-12-31T14:05:55;24.45;;;16.55;;
40611;SDS011;26317;44.894;20.286;2022-12-31T14:08:35;32.78;;;19.08;;
40611;SDS011;26317;44.894;20.286;2022-12-31T14:11:06;28.88;;;18.98;;
40611;SDS011;26317;44.894;20.286;2022-12-31T14:13:54;26.50;;;18.85;;
40611;SDS011;26317;44.894;20.286;2022-12-31T14:16:39;27.85;;;20.23;;
40611;SDS011;26317;44.894;20.286;2022-12-31T14:19:19;33.97;;;21.73;;
40611;SDS011;26317;44.894;20.286;2022-12-31T14:22:00;32.70;;;20.40;;
40611;SDS011;26317;44.894;20.286;2022-12-31T14:24:42;29.90;;;18.13;;
40611;SDS011;26317;44.894;20.286;2022-12-31T14:27:26;25.90;;;15.63;;
40611;SDS011;26317;44.894;20.286;2022-12-31T14:30:06;23.80;;;16.38;;
40611;SDS011;26317;44.894;20.286;2022-12-31T14:32:55;25.00;;;17.25;;
40611;SDS011;26317;44.894;20.286;2022-12-31T14:35:42;24.10;;;15.05;;
40611;SDS011;26317;44.894;20.286;2022-12-31T14:38:34;24.77;;;15.25;;
40611;SDS011;26317;44.894;20.286;2022-12-31T14:41:26;23.10;;;15.98;;
40611;SDS011;26317;44.894;20.286;2022-12-31T14:44:10;22.73;;;16.63;;
40611;SDS011;26317;44.894;20.286;2022-12-31T14:47:05;21.38;;;15.68;;
40611;SDS011;26317;44.894;20.286;2022-12-31T14:49:48;24.55;;;16.98;;
40611;SDS011;26317;44.894;20.286;2022-12-31T14:52:32;27.92;;;20.08;;
40611;SDS011;26317;44.894;20.286;2022-12-31T14:55:18;32.58;;;23.42;;
40611;SDS011;26317;44.894;20.286;2022-12-31T14:57:54;35.97;;;24.30;;
40611;SDS011;26317;44.894;20.286;2022-12-31T15:03:24;38.03;;;25.40;;
40611;SDS011;26317;44.894;20.286;2022-12-31T15:06:07;37.38;;;24.35;;
40611;SDS011;26317;44.894;20.286;2022-12-31T15:09:15;31.50;;;19.77;;
40611;SDS011;26317;44.894;20.286;2022-12-31T15:12:05;32.05;;;20.55;;
40611;SDS011;26317;44.894;20.286;2022-12-31T15:18:09;47.22;;;29.45;;
40611;SDS011;26317;44.894;20.286;2022-12-31T15:24:14;41.95;;;26.42;;
40611;SDS011;26317;44.894;20.286;2022-12-31T15:26:57;41.72;;;27.50;;
40611;SDS011;26317;44.894;20.286;2022-12-31T15:29:34;40.88;;;28.13;;
40611;SDS011;26317;44.894;20.286;2022-12-31T15:32:15;46.88;;;31.85;;
40611;SDS011;26317;44.894;20.286;2022-12-31T15:35:19;44.60;;;31.02;;
40611;SDS011;26317;44.894;20.286;2022-12-31T15:37:57;48.60;;;32.30;;
40611;SDS011;26317;44.894;20.286;2022-12-31T15:40:45;44.28;;;28.42;;
40611;SDS011;26317;44.894;20.286;2022-12-31T15:43:34;43.50;;;28.23;;
40611;SDS011;26317;44.894;20.286;2022-12-31T15:46:13;40.13;;;27.30;;
40611;SDS011;26317;44.894;20.286;2022-12-31T15:48:50;40.83;;;28.70;;
40611;SDS011;26317;44.894;20.286;2022-12-31T15:51:40;40.60;;;28.35;;
40611;SDS011;26317;44.894;20.286;2022-12-31T15:54:31;42.35;;;28.25;;
40611;SDS011;26317;44.894;20.286;2022-12-31T15:57:20;52.95;;;34.72;;
40611;SDS011;26317;44.894;20.286;2022-12-31T16:00:01;50.30;;;36.95;;
40611;SDS011;26317;44.894;20.286;2022-12-31T16:02:43;54.33;;;36.65;;
40611;SDS011;26317;44.894;20.286;2022-12-31T16:05:25;45.42;;;31.98;;
40611;SDS011;26317;44.894;20.286;2022-12-31T16:08:06;48.97;;;33.15;;
40611;SDS011;26317;44.894;20.286;2022-12-31T16:10:50;49.35;;;35.15;;
40611;SDS011;26317;44.894;20.286;2022-12-31T16:13:26;57.55;;;39.55;;
40611;SDS011;26317;44.894;20.286;2022-12-31T16:16:06;51.65;;;35.10;;
40611;SDS011;26317;44.894;20.286;2022-12-31T16:18:49;46.10;;;29.92;;
40611;SDS011;26317;44.894;20.286;2022-12-31T16:21:27;47.38;;;29.90;;
40611;SDS011;26317;44.894;20.286;2022-12-31T16:27:04;41.58;;;27.27;;
40611;SDS011;26317;44.894;20.286;2022-12-31T16:29:36;37.85;;;27.88;;
40611;SDS011;26317;44.894;20.286;2022-12-31T16:32:11;41.58;;;30.52;;
40611;SDS011;26317;44.894;20.286;2022-12-31T16:34:49;48.22;;;33.28;;
40611;SDS011;26317;44.894;20.286;2022-12-31T16:40:18;51.45;;;36.47;;
40611;SDS011;26317;44.894;20.286;2022-12-31T16:42:49;48.03;;;36.65;;
40611;SDS011;26317;44.894;20.286;2022-12-31T16:45:28;70.55;;;46.47;;
40611;SDS011;26317;44.894;20.286;2022-12-31T16:48:10;266.40;;;144.60;;
40611;SDS011;26317;44.894;20.286;2022-12-31T16:50:48;187.32;;;105.88;;
40611;SDS011;26317;44.894;20.286;2022-12-31T16:53:23;115.97;;;68.43;;
40611;SDS011;26317;44.894;20.286;2022-12-31T16:59:11;84.53;;;55.78;;
40611;SDS011;26317;44.894;20.286;2022-12-31T17:01:47;74.10;;;51.05;;
40611;SDS011;26317;44.894;20.286;2022-12-31T17:04:26;69.45;;;50.05;;
40611;SDS011;26317;44.894;20.286;2022-12-31T17:10:01;54.90;;;37.38;;
40611;SDS011;26317;44.894;20.286;2022-12-31T17:12:43;55.60;;;39.70;;
40611;SDS011;26317;44.894;20.286;2022-12-31T17:15:20;58.40;;;41.00;;
40611;SDS011;26317;44.894;20.286;2022-12-31T17:17:59;52.47;;;39.55;;
40611;SDS011;26317;44.894;20.286;2022-12-31T17:20:36;56.55;;;40.90;;
40611;SDS011;26317;44.894;20.286;2022-12-31T17:23:10;57.67;;;36.83;;
40611;SDS011;26317;44.894;20.286;2022-12-31T17:26:04;49.75;;;36.03;;
40611;SDS011;26317;44.894;20.286;2022-12-31T17:28:45;55.67;;;36.95;;
40611;SDS011;26317;44.894;20.286;2022-12-31T17:31:24;48.00;;;36.10;;